Sankuniki — JD2465 — position and weather

sailwx.info

Track history (hours):
 
Tides and Currents Weather Stations Pressure Air Temp Water Temp Dewpoint Dewpoint Depression Visibility Wind Speed Wind Dir Waves Ship Positions

Sankuniki

Last reported at 2017-Dec-01 18:57 UTC. Time now 2017-Dec-13 22:33 UTC.
Position N 34°51' E 139°45'.
Warning: this ship's position is 12 days out of date.

Length 71 m; draft 4.8 m.

Type: Cargo ship. MMSI: 431000269.

Date/timePositionNaut miles runAvg speedWind from/ knotsBaromVisibWave heightAir tempDewpointWater temp
2017-Dec-01 18:57N 34°51' E 139°45'712.4
2017-Dec-01 18:24N 34°50' E 139°37'712.0
2017-Dec-01 17:51N 34°50' E 139°29'510.8
2017-Dec-01 17:26N 34°49' E 139°23'511.5
2017-Dec-01 17:00N 34°48' E 139°18'1012.1
2017-Dec-01 16:08N 34°42' E 139°07'212.1
2017-Dec-01 15:56N 34°40' E 139°05'511.4
2017-Dec-01 15:29N 34°37' E 138°60'812.3
2017-Dec-01 14:49N 34°34' E 138°51'812.9
2017-Dec-01 14:11N 34°34' E 138°41'312.5
2017-Dec-01 13:56N 34°34' E 138°37'2512.8
2017-Dec-01 11:58N 34°33' E 138°06'712.8
2017-Dec-01 11:23N 34°33' E 137°57'5010.5
2017-Dec-01 06:38N 34°45' E 136°58'412.5
2017-Dec-01 06:19N 34°48' E 136°57'411.6
2017-Dec-01 06:00N 34°52' E 136°57'1 1.7
2017-Dec-01 05:31N 34°53' E 136°58'0 0.0
2017-Dec-01 04:55N 34°53' E 136°58'0 0.0
2017-Dec-01 04:28N 34°53' E 136°58'0 0.0
2017-Dec-01 03:58N 34°53' E 136°58'0 0.0
2017-Dec-01 03:25N 34°53' E 136°58'0 0.0
2017-Dec-01 02:58N 34°53' E 136°58'0 0.0
2017-Dec-01 02:28N 34°53' E 136°58'0 0.0
2017-Dec-01 01:58N 34°53' E 136°58'0 0.0
2017-Dec-01 01:25N 34°53' E 136°58'0 0.0
2017-Dec-01 00:58N 34°53' E 136°58'0 0.0
2017-Dec-01 00:28N 34°53' E 136°58'0 0.0
2017-Nov-30 23:49N 34°53' E 136°58'0 0.0
2017-Nov-30 23:28N 34°53' E 136°58'0 0.0
2017-Nov-30 22:43N 34°53' E 136°58'0 0.0
2017-Nov-30 22:28N 34°53' E 136°58'1 1.5
2017-Nov-30 21:58N 34°53' E 136°58'0 0.1
2017-Nov-30 21:28N 34°53' E 136°58'0 0.1
2017-Nov-30 20:58N 34°53' E 136°58'0 0.1
2017-Nov-30 20:28N 34°53' E 136°58'0 0.1
2017-Nov-30 19:58N 34°53' E 136°58'0 0.1
2017-Nov-30 19:28N 34°53' E 136°58'0 0.0
2017-Nov-30 18:46N 34°53' E 136°58'0 0.0
2017-Nov-30 18:25N 34°53' E 136°58'0 0.1
2017-Nov-30 17:58N 34°53' E 136°58'0 0.0
2017-Nov-30 17:28N 34°53' E 136°58'0 0.0
2017-Nov-30 16:52N 34°53' E 136°58'0 0.0
2017-Nov-30 16:28N 34°53' E 136°58'0 0.0
2017-Nov-30 15:58N 34°53' E 136°58'0 0.0
2017-Nov-30 15:28N 34°53' E 136°58'0 0.0
2017-Nov-30 14:58N 34°53' E 136°58'0 0.1
2017-Nov-30 14:28N 34°53' E 136°58'0 0.0
2017-Nov-30 13:58N 34°53' E 136°58'0 0.0
2017-Nov-30 13:28N 34°53' E 136°58'0 0.0
2017-Nov-30 12:58N 34°53' E 136°58'0 0.1
2017-Nov-30 12:28N 34°53' E 136°58'0 0.1
2017-Nov-30 11:58N 34°53' E 136°58'0 0.0
2017-Nov-30 11:16N 34°53' E 136°58'0 0.0
2017-Nov-30 10:58N 34°53' E 136°58'0 0.0
2017-Nov-30 10:28N 34°53' E 136°58'3 7.2
2017-Nov-30 10:00N 34°50' E 136°57'612.1
2017-Nov-30 09:29N 34°44' E 136°59'6 8.4
2017-Nov-30 08:48N 34°42' E 136°53'414.2
2017-Nov-30 08:31N 34°44' E 136°48'713.3
2017-Nov-30 08:00N 34°50' E 136°46'713.1
2017-Nov-30 07:30N 34°57' E 136°47'713.4
2017-Nov-30 07:00N 35°02' E 136°51'2 5.0
2017-Nov-30 06:30N 35°04' E 136°53'0 0.0
2017-Nov-30 06:00N 35°04' E 136°53'0 0.0
2017-Nov-30 05:28N 35°04' E 136°53'0 0.0
2017-Nov-30 04:58N 35°04' E 136°53'0 0.0
2017-Nov-30 04:28N 35°04' E 136°53'0 0.0
2017-Nov-30 03:55N 35°04' E 136°53'0 0.0
2017-Nov-30 03:28N 35°04' E 136°53'0 0.0
2017-Nov-30 02:49N 35°04' E 136°53'0 0.0
2017-Nov-30 02:28N 35°04' E 136°53'0 0.0
2017-Nov-30 01:58N 35°04' E 136°53'0 0.0
2017-Nov-30 01:22N 35°04' E 136°53'0 0.0
2017-Nov-30 00:55N 35°04' E 136°53'0 0.0
2017-Nov-30 00:28N 35°04' E 136°53'0 0.0
2017-Nov-29 23:58N 35°04' E 136°53'0 0.0
2017-Nov-29 23:28N 35°04' E 136°53'0 0.0
2017-Nov-29 22:58N 35°04' E 136°53'0 0.0
2017-Nov-29 22:28N 35°04' E 136°53'0 0.0
2017-Nov-29 21:58N 35°04' E 136°53'0 0.0
2017-Nov-29 21:25N 35°04' E 136°53'0 0.0
2017-Nov-29 20:58N 35°04' E 136°53'0 0.0
2017-Nov-29 20:28N 35°04' E 136°53'0 0.0
2017-Nov-29 19:55N 35°04' E 136°53'0 0.0
2017-Nov-29 19:28N 35°04' E 136°53'0 0.0
2017-Nov-29 18:58N 35°04' E 136°53'0 0.0
2017-Nov-29 18:28N 35°04' E 136°53'0 0.0
2017-Nov-29 17:58N 35°04' E 136°53'0 0.0
2017-Nov-29 17:28N 35°04' E 136°53'0 0.0
2017-Nov-29 16:55N 35°04' E 136°53'0 0.0
2017-Nov-29 16:25N 35°04' E 136°53'0 0.0
2017-Nov-29 15:58N 35°04' E 136°53'0 0.0
2017-Nov-29 15:28N 35°04' E 136°53'0 0.0
2017-Nov-29 14:55N 35°04' E 136°53'0 0.0
2017-Nov-29 14:28N 35°04' E 136°53'0 0.0
2017-Nov-29 13:58N 35°04' E 136°53'0 0.0
2017-Nov-29 13:25N 35°04' E 136°53'0 0.0
2017-Nov-29 12:55N 35°04' E 136°53'0 0.0
2017-Nov-29 12:28N 35°04' E 136°53'0 0.0
2017-Nov-29 11:58N 35°04' E 136°53'0 0.0
2017-Nov-29 11:28N 35°04' E 136°53'0 0.0
2017-Nov-29 10:58N 35°04' E 136°53'0 0.0
2017-Nov-29 10:25N 35°04' E 136°53'0 0.0
2017-Nov-29 09:55N 35°04' E 136°53'0 0.0
2017-Nov-29 09:28N 35°04' E 136°53'0 0.0
2017-Nov-29 08:59N 35°04' E 136°53'0 0.4
2017-Nov-29 08:30N 35°05' E 136°53'0 0.2
2017-Nov-29 08:00N 35°05' E 136°53'510.1
2017-Nov-29 07:30N 35°00' E 136°50'611.7
2017-Nov-29 07:00N 34°55' E 136°47'611.8
2017-Nov-29 06:30N 34°49' E 136°46'611.5
2017-Nov-29 06:00N 34°44' E 136°48'6711.5
2017-Nov-29 00:10N 34°33' E 138°09'211.7
2017-Nov-28 23:59N 34°33' E 138°11'610.8
2017-Nov-28 23:28N 34°33' E 138°18'510.5
2017-Nov-28 22:59N 34°34' E 138°24'2510.6
2017-Nov-28 20:38N 34°36' E 138°54'110.0
2017-Nov-28 20:29N 34°36' E 138°56'1110.8
2017-Nov-28 19:30N 34°42' E 139°07'510.5
2017-Nov-28 19:00N 34°44' E 139°12'1910.9
2017-Nov-28 17:18N 34°50' E 139°34'2111.7
2017-Nov-28 15:31N 34°54' E 139°59'  
Track history (hours):
 
Tides and Currents Weather Stations Pressure Air Temp Water Temp Dewpoint Dewpoint Depression Visibility Wind Speed Wind Dir Waves Ship Positions

Sankuniki

Last reported at 2017-Dec-01 18:57 UTC. Time now 2017-Dec-13 22:33 UTC.
Position N 34°51' E 139°45'.
Warning: this ship's position is 12 days out of date.

Length 71 m; draft 4.8 m.

Type: Cargo ship. MMSI: 431000269.

Date/timePositionNaut miles runAvg speedWind from/ knotsBaromVisibWave heightAir tempDewpointWater temp
2017-Dec-01 18:57N 34°51' E 139°45'712.4
2017-Dec-01 18:24N 34°50' E 139°37'712.0
2017-Dec-01 17:51N 34°50' E 139°29'510.8
2017-Dec-01 17:26N 34°49' E 139°23'511.5
2017-Dec-01 17:00N 34°48' E 139°18'1012.1
2017-Dec-01 16:08N 34°42' E 139°07'212.1
2017-Dec-01 15:56N 34°40' E 139°05'511.4
2017-Dec-01 15:29N 34°37' E 138°60'812.3
2017-Dec-01 14:49N 34°34' E 138°51'812.9
2017-Dec-01 14:11N 34°34' E 138°41'312.5
2017-Dec-01 13:56N 34°34' E 138°37'2512.8
2017-Dec-01 11:58N 34°33' E 138°06'712.8
2017-Dec-01 11:23N 34°33' E 137°57'5010.5
2017-Dec-01 06:38N 34°45' E 136°58'412.5
2017-Dec-01 06:19N 34°48' E 136°57'411.6
2017-Dec-01 06:00N 34°52' E 136°57'1 1.7
2017-Dec-01 05:31N 34°53' E 136°58'0 0.0
2017-Dec-01 04:55N 34°53' E 136°58'0 0.0
2017-Dec-01 04:28N 34°53' E 136°58'0 0.0
2017-Dec-01 03:58N 34°53' E 136°58'0 0.0
2017-Dec-01 03:25N 34°53' E 136°58'0 0.0
2017-Dec-01 02:58N 34°53' E 136°58'0 0.0
2017-Dec-01 02:28N 34°53' E 136°58'0 0.0
2017-Dec-01 01:58N 34°53' E 136°58'0 0.0
2017-Dec-01 01:25N 34°53' E 136°58'0 0.0
2017-Dec-01 00:58N 34°53' E 136°58'0 0.0
2017-Dec-01 00:28N 34°53' E 136°58'0 0.0
2017-Nov-30 23:49N 34°53' E 136°58'0 0.0
2017-Nov-30 23:28N 34°53' E 136°58'0 0.0
2017-Nov-30 22:43N 34°53' E 136°58'0 0.0
2017-Nov-30 22:28N 34°53' E 136°58'1 1.5
2017-Nov-30 21:58N 34°53' E 136°58'0 0.1
2017-Nov-30 21:28N 34°53' E 136°58'0 0.1
2017-Nov-30 20:58N 34°53' E 136°58'0 0.1
2017-Nov-30 20:28N 34°53' E 136°58'0 0.1
2017-Nov-30 19:58N 34°53' E 136°58'0 0.1
2017-Nov-30 19:28N 34°53' E 136°58'0 0.0
2017-Nov-30 18:46N 34°53' E 136°58'0 0.0
2017-Nov-30 18:25N 34°53' E 136°58'0 0.1
2017-Nov-30 17:58N 34°53' E 136°58'0 0.0
2017-Nov-30 17:28N 34°53' E 136°58'0 0.0
2017-Nov-30 16:52N 34°53' E 136°58'0 0.0
2017-Nov-30 16:28N 34°53' E 136°58'0 0.0
2017-Nov-30 15:58N 34°53' E 136°58'0 0.0
2017-Nov-30 15:28N 34°53' E 136°58'0 0.0
2017-Nov-30 14:58N 34°53' E 136°58'0 0.1
2017-Nov-30 14:28N 34°53' E 136°58'0 0.0
2017-Nov-30 13:58N 34°53' E 136°58'0 0.0
2017-Nov-30 13:28N 34°53' E 136°58'0 0.0
2017-Nov-30 12:58N 34°53' E 136°58'0 0.1
2017-Nov-30 12:28N 34°53' E 136°58'0 0.1
2017-Nov-30 11:58N 34°53' E 136°58'0 0.0
2017-Nov-30 11:16N 34°53' E 136°58'0 0.0
2017-Nov-30 10:58N 34°53' E 136°58'0 0.0
2017-Nov-30 10:28N 34°53' E 136°58'3 7.2
2017-Nov-30 10:00N 34°50' E 136°57'612.1
2017-Nov-30 09:29N 34°44' E 136°59'6 8.4
2017-Nov-30 08:48N 34°42' E 136°53'414.2
2017-Nov-30 08:31N 34°44' E 136°48'713.3
2017-Nov-30 08:00N 34°50' E 136°46'713.1
2017-Nov-30 07:30N 34°57' E 136°47'713.4
2017-Nov-30 07:00N 35°02' E 136°51'2 5.0
2017-Nov-30 06:30N 35°04' E 136°53'0 0.0
2017-Nov-30 06:00N 35°04' E 136°53'0 0.0
2017-Nov-30 05:28N 35°04' E 136°53'0 0.0
2017-Nov-30 04:58N 35°04' E 136°53'0 0.0
2017-Nov-30 04:28N 35°04' E 136°53'0 0.0
2017-Nov-30 03:55N 35°04' E 136°53'0 0.0
2017-Nov-30 03:28N 35°04' E 136°53'0 0.0
2017-Nov-30 02:49N 35°04' E 136°53'0 0.0
2017-Nov-30 02:28N 35°04' E 136°53'0 0.0
2017-Nov-30 01:58N 35°04' E 136°53'0 0.0
2017-Nov-30 01:22N 35°04' E 136°53'0 0.0
2017-Nov-30 00:55N 35°04' E 136°53'0 0.0
2017-Nov-30 00:28N 35°04' E 136°53'0 0.0
2017-Nov-29 23:58N 35°04' E 136°53'0 0.0
2017-Nov-29 23:28N 35°04' E 136°53'0 0.0
2017-Nov-29 22:58N 35°04' E 136°53'0 0.0
2017-Nov-29 22:28N 35°04' E 136°53'0 0.0
2017-Nov-29 21:58N 35°04' E 136°53'0 0.0
2017-Nov-29 21:25N 35°04' E 136°53'0 0.0
2017-Nov-29 20:58N 35°04' E 136°53'0 0.0
2017-Nov-29 20:28N 35°04' E 136°53'0 0.0
2017-Nov-29 19:55N 35°04' E 136°53'0 0.0
2017-Nov-29 19:28N 35°04' E 136°53'0 0.0
2017-Nov-29 18:58N 35°04' E 136°53'0 0.0
2017-Nov-29 18:28N 35°04' E 136°53'0 0.0
2017-Nov-29 17:58N 35°04' E 136°53'0 0.0
2017-Nov-29 17:28N 35°04' E 136°53'0 0.0
2017-Nov-29 16:55N 35°04' E 136°53'0 0.0
2017-Nov-29 16:25N 35°04' E 136°53'0 0.0
2017-Nov-29 15:58N 35°04' E 136°53'0 0.0
2017-Nov-29 15:28N 35°04' E 136°53'0 0.0
2017-Nov-29 14:55N 35°04' E 136°53'0 0.0
2017-Nov-29 14:28N 35°04' E 136°53'0 0.0
2017-Nov-29 13:58N 35°04' E 136°53'0 0.0
2017-Nov-29 13:25N 35°04' E 136°53'0 0.0
2017-Nov-29 12:55N 35°04' E 136°53'0 0.0
2017-Nov-29 12:28N 35°04' E 136°53'0 0.0
2017-Nov-29 11:58N 35°04' E 136°53'0 0.0
2017-Nov-29 11:28N 35°04' E 136°53'0 0.0
2017-Nov-29 10:58N 35°04' E 136°53'0 0.0
2017-Nov-29 10:25N 35°04' E 136°53'0 0.0
2017-Nov-29 09:55N 35°04' E 136°53'0 0.0
2017-Nov-29 09:28N 35°04' E 136°53'0 0.0
2017-Nov-29 08:59N 35°04' E 136°53'0 0.4
2017-Nov-29 08:30N 35°05' E 136°53'0 0.2
2017-Nov-29 08:00N 35°05' E 136°53'510.1
2017-Nov-29 07:30N 35°00' E 136°50'611.7
2017-Nov-29 07:00N 34°55' E 136°47'611.8
2017-Nov-29 06:30N 34°49' E 136°46'611.5
2017-Nov-29 06:00N 34°44' E 136°48'6711.5
2017-Nov-29 00:10N 34°33' E 138°09'211.7
2017-Nov-28 23:59N 34°33' E 138°11'610.8
2017-Nov-28 23:28N 34°33' E 138°18'510.5
2017-Nov-28 22:59N 34°34' E 138°24'2510.6
2017-Nov-28 20:38N 34°36' E 138°54'110.0
2017-Nov-28 20:29N 34°36' E 138°56'1110.8
2017-Nov-28 19:30N 34°42' E 139°07'510.5
2017-Nov-28 19:00N 34°44' E 139°12'1910.9
2017-Nov-28 17:18N 34°50' E 139°34'2111.7
2017-Nov-28 15:31N 34°54' E 139°59'  

Dump ship's entire track history